createdAt,value
2018-05-24T00:00:01.759Z,5.23
2018-05-24T00:05:56.620Z,7.39
2018-05-24T00:11:51.594Z,5.79
2018-05-24T00:17:46.601Z,3.9
2018-05-24T00:23:41.589Z,5.7
2018-05-24T00:29:36.605Z,6.2
2018-05-24T00:35:31.643Z,5.74
2018-05-24T00:41:26.606Z,5.4
2018-05-24T00:47:21.593Z,3.72
2018-05-24T00:53:16.644Z,3.84
2018-05-24T00:59:11.613Z,8.64
2018-05-24T01:05:06.639Z,7.64
2018-05-24T01:11:01.622Z,4.36
2018-05-24T01:16:56.628Z,5.36
2018-05-24T01:22:51.649Z,6.6
2018-05-24T01:28:46.682Z,3.17
2018-05-24T01:34:41.631Z,8.35
2018-05-24T01:40:36.665Z,6.56
2018-05-24T01:46:31.674Z,6.04
2018-05-24T01:52:26.693Z,4.48
2018-05-24T01:58:21.665Z,6.05
2018-05-24T02:04:16.692Z,3.33
2018-05-24T02:10:11.692Z,4.93
2018-05-24T02:16:06.691Z,6.51
2018-05-24T02:22:01.696Z,5.39
2018-05-24T02:27:56.743Z,4.33
2018-05-24T02:33:51.687Z,4.32
2018-05-24T02:39:46.756Z,6.37
2018-05-24T02:45:41.696Z,3.89
2018-05-24T02:51:36.722Z,6.17
2018-05-24T02:57:31.800Z,6.64
2018-05-24T03:03:26.754Z,3.09
2018-05-24T03:09:21.741Z,3.98
2018-05-24T03:15:16.756Z,6.85
2018-05-24T03:21:11.800Z,4.13
2018-05-24T03:27:06.804Z,8.42
2018-05-24T03:33:01.780Z,6.59
2018-05-24T03:38:56.771Z,4.94
2018-05-24T03:44:51.761Z,5.2
2018-05-24T03:50:46.774Z,3.34
2018-05-24T03:56:41.776Z,5.64
2018-05-24T04:02:36.780Z,9.39
2018-05-24T04:08:31.782Z,3.71
2018-05-24T04:14:26.857Z,4.07
2018-05-24T04:20:21.793Z,5.67
2018-05-24T04:26:16.795Z,5.55
2018-05-24T04:32:11.913Z,6.27
2018-05-24T04:38:06.812Z,3.97
2018-05-24T04:44:01.855Z,4.87
2018-05-24T04:49:56.811Z,4.18
2018-05-24T04:55:51.906Z,7.18
2018-05-24T05:01:46.843Z,7.95
2018-05-24T05:07:41.904Z,5.5
2018-05-24T05:13:36.867Z,6.4
2018-05-24T05:19:31.972Z,6.53
2018-05-24T05:25:26.843Z,5.97
2018-05-24T05:31:21.848Z,5.73
2018-05-24T05:37:16.846Z,9.7
2018-05-24T05:43:11.857Z,9.96
2018-05-24T05:49:06.860Z,5.68
2018-05-24T05:55:01.907Z,7.07
2018-05-24T06:00:56.877Z,10.08
2018-05-24T06:06:51.881Z,5.87
2018-05-24T06:12:46.932Z,7
2018-05-24T06:18:41.902Z,7.47
2018-05-24T06:24:36.892Z,8.56
2018-05-24T06:30:31.974Z,11.03
2018-05-24T06:36:26.904Z,8.5
2018-05-24T06:42:21.912Z,10.42
2018-05-24T06:48:16.964Z,11.24
2018-05-24T06:54:11.915Z,14.05
2018-05-24T07:00:06.970Z,11.56
2018-05-24T07:06:02.127Z,11.82
2018-05-24T07:11:56.969Z,11.33
2018-05-24T07:17:51.966Z,11.84
2018-05-24T07:23:46.962Z,11.5
2018-05-24T07:29:41.962Z,13.2
2018-05-24T07:35:36.989Z,13.12
2018-05-24T07:41:31.985Z,14.37
2018-05-24T07:47:26.982Z,15.35
2018-05-24T07:53:21.985Z,11.51
2018-05-24T07:59:17.012Z,17.28
2018-05-24T08:05:12.009Z,13.47
2018-05-24T08:11:07.004Z,18.64
2018-05-24T08:17:02.016Z,12.05
2018-05-24T08:22:57.033Z,14.73
2018-05-24T08:28:52.052Z,12
2018-05-24T08:34:47.018Z,15.98
2018-05-24T08:40:42.107Z,18.4
2018-05-24T08:46:37.022Z,12.56
2018-05-24T08:52:32.022Z,13.09
2018-05-24T08:58:27.023Z,13.57
2018-05-24T09:04:22.084Z,12.88
2018-05-24T09:10:17.068Z,12.87
2018-05-24T09:16:12.127Z,17.38
2018-05-24T09:22:07.154Z,15.56
2018-05-24T09:28:02.097Z,14.12
2018-05-24T09:33:57.081Z,16.64
2018-05-24T09:39:52.057Z,14.19
2018-05-24T09:45:47.112Z,13.36
2018-05-24T09:51:42.101Z,13.75
2018-05-24T09:57:37.113Z,14.35
2018-05-24T10:03:32.160Z,13.99
2018-05-24T10:09:27.119Z,15.12
2018-05-24T10:15:22.128Z,15.63
2018-05-24T10:21:17.122Z,13.76
2018-05-24T10:27:12.139Z,15.23
2018-05-24T10:33:07.163Z,14.33
2018-05-24T10:39:02.176Z,15.04
2018-05-24T10:44:57.157Z,14.13
2018-05-24T10:50:52.186Z,11.39
2018-05-24T10:56:47.290Z,15.7
2018-05-24T11:02:42.229Z,15.79
2018-05-24T11:08:37.192Z,12.54
2018-05-24T11:14:32.183Z,11.6
2018-05-24T11:20:27.193Z,13.13
2018-05-24T11:26:22.253Z,10.11
2018-05-24T11:32:17.199Z,8.3
2018-05-24T11:38:12.197Z,10.82
2018-05-24T11:44:07.215Z,11.08
2018-05-24T11:50:02.219Z,13.07
2018-05-24T11:55:57.237Z,10.23
2018-05-24T12:01:52.327Z,10.76
2018-05-24T12:07:47.210Z,8.69
2018-05-24T12:13:42.304Z,11.21
2018-05-24T12:19:37.250Z,10.47
2018-05-24T12:25:32.237Z,10.59
2018-05-24T12:31:27.228Z,7.83
2018-05-24T12:37:22.272Z,9.77
2018-05-24T12:43:17.352Z,10.84
2018-05-24T12:49:12.307Z,13.95
2018-05-24T12:55:07.268Z,10.91
2018-05-24T13:01:02.550Z,8.29
2018-05-24T13:06:57.392Z,11.51
2018-05-24T13:12:52.255Z,7.99
2018-05-24T13:18:47.371Z,8.84
2018-05-24T13:24:42.323Z,10.43
2018-05-24T13:30:37.347Z,9.26
2018-05-24T13:36:32.368Z,8.37
2018-05-24T13:42:27.352Z,8.68
2018-05-24T13:48:22.334Z,8
2018-05-24T13:54:17.348Z,7.83
2018-05-24T14:00:12.337Z,7.09
2018-05-24T14:06:07.335Z,10.08
2018-05-24T14:12:02.383Z,7.55
2018-05-24T14:17:57.359Z,7.34
2018-05-24T14:23:52.335Z,7.5
2018-05-24T14:29:47.392Z,7.27
2018-05-24T14:35:42.386Z,8.59
2018-05-24T14:41:37.396Z,18.75
2018-05-24T14:47:32.479Z,8.23
2018-05-24T14:53:27.394Z,9.43
2018-05-24T14:59:22.397Z,7.64
2018-05-24T15:05:17.378Z,8.8
2018-05-24T15:11:12.476Z,8.37
2018-05-24T15:17:08.170Z,9.75
2018-05-24T15:23:02.402Z,0
2018-05-24T15:28:57.457Z,9.25
2018-05-24T15:34:52.408Z,11.93
2018-05-24T15:40:47.512Z,10.3
2018-05-24T15:46:42.502Z,6.99
2018-05-24T15:52:37.410Z,7.07
2018-05-24T15:58:32.458Z,7.75
2018-05-24T16:04:27.491Z,9.53
2018-05-24T16:10:22.444Z,7.58
2018-05-24T16:16:17.571Z,10.28
2018-05-24T16:22:12.523Z,7.55
2018-05-24T16:28:07.455Z,9.22
2018-05-24T16:34:02.547Z,7.6
2018-05-24T16:39:57.500Z,9.19
2018-05-24T16:45:52.515Z,7.42
2018-05-24T16:51:47.548Z,13.98
2018-05-24T16:57:42.716Z,7.84
2018-05-24T17:03:37.534Z,8.54
2018-05-24T17:09:32.498Z,8.95
2018-05-24T17:15:27.548Z,8.5
2018-05-24T17:21:22.523Z,8.67
2018-05-24T17:27:17.552Z,7.83
2018-05-24T17:33:12.536Z,7.48
2018-05-24T17:39:07.578Z,8.2
2018-05-24T17:45:02.570Z,8.89
2018-05-24T17:50:57.623Z,9.23
2018-05-24T17:56:52.588Z,8.17
2018-05-24T18:02:47.576Z,14.18
2018-05-24T18:08:42.573Z,12.52
2018-05-24T18:14:37.599Z,11.84
2018-05-24T18:20:32.576Z,9.89
2018-05-24T18:26:27.550Z,9.24
2018-05-24T18:32:22.578Z,10.07
2018-05-24T18:38:17.580Z,14.39
2018-05-24T18:44:12.604Z,15.83
2018-05-24T18:50:07.598Z,13.94
2018-05-24T18:56:02.692Z,12.74
2018-05-24T19:01:57.689Z,15.61
2018-05-24T19:07:52.688Z,13.17
2018-05-24T19:13:47.677Z,11.09
2018-05-24T19:19:42.700Z,17.74
2018-05-24T19:25:37.762Z,14.49
2018-05-24T19:31:32.652Z,13.65
2018-05-24T19:37:27.664Z,15.89
2018-05-24T19:43:22.690Z,14.75
2018-05-24T19:49:17.698Z,15.15
2018-05-24T19:55:12.675Z,11.18
2018-05-24T20:01:07.657Z,15.72
2018-05-24T20:07:02.663Z,12.94
2018-05-24T20:12:57.716Z,11.8
2018-05-24T20:18:52.755Z,11.99
2018-05-24T20:24:47.674Z,14.28
2018-05-24T20:30:42.720Z,10.74
2018-05-24T20:36:37.801Z,22.9
2018-05-24T20:42:32.793Z,13.93
2018-05-24T20:48:27.713Z,11.68
2018-05-24T20:54:22.747Z,13.96
2018-05-24T21:00:17.772Z,11.61
